TKJ4317 LTCW-LTAC
Flight info
| Callsign | TKJ4317 |
|---|---|
| Flight time | 1h 41m |
| Altitude | 36000 |
| Route | INLAP UT301 NARLI UG8 GOBIT |
| Aircraft | B738/M-SDE2E3FGHIRWXY/LB1 |
Departure
| Time | 2026-05-06 06:05 |
|---|---|
| Airport | Hakkari Yüksekova Airport (LTCW) |
Arrival
| Time | 2026-05-06 07:46 |
|---|---|
| Airport | Esenboğa International Airport (LTAC) |
| Time | Latitude | Longitude | Altitude | Speed | Heading |
|---|---|---|---|---|---|
| 2026-05-06 05:43 | 37.54591 | 44.25548 | 6082 ft | 0 kts | 28° |
| 2026-05-06 05:57 | 37.54572 | 44.25535 | 6085 ft | 4 kts | 28° |
| 2026-05-06 05:57 | 37.54553 | 44.25521 | 6085 ft | 4 kts | 41° |
| 2026-05-06 05:57 | 37.54542 | 44.25499 | 6082 ft | 4 kts | 106° |
| 2026-05-06 05:57 | 37.54553 | 44.25471 | 6084 ft | 4 kts | 116° |
| 2026-05-06 05:58 | 37.54556 | 44.25461 | 6082 ft | 0 kts | 118° |
| 2026-05-06 06:01 | 37.54556 | 44.25463 | 6094 ft | 0 kts | 118° |
| 2026-05-06 06:02 | 37.54553 | 44.25468 | 6087 ft | 1 kts | 118° |
| 2026-05-06 06:02 | 37.54546 | 44.25483 | 6087 ft | 3 kts | 124° |
| 2026-05-06 06:02 | 37.54529 | 44.25493 | 6094 ft | 3 kts | 171° |
| 2026-05-06 06:02 | 37.54506 | 44.25487 | 6094 ft | 4 kts | 200° |
| 2026-05-06 06:03 | 37.54480 | 44.25472 | 6094 ft | 5 kts | 207° |
| 2026-05-06 06:03 | 37.54449 | 44.25452 | 6093 ft | 5 kts | 207° |
| 2026-05-06 06:03 | 37.54414 | 44.25429 | 6092 ft | 6 kts | 207° |
| 2026-05-06 06:03 | 37.54373 | 44.25402 | 6092 ft | 7 kts | 207° |
| 2026-05-06 06:04 | 37.54328 | 44.25371 | 6095 ft | 8 kts | 222° |
| 2026-05-06 06:04 | 37.54328 | 44.25311 | 6094 ft | 7 kts | 295° |
| 2026-05-06 06:04 | 37.54399 | 44.25145 | 6088 ft | 50 kts | 298° |
| 2026-05-06 06:04 | 37.54663 | 44.24526 | 6089 ft | 110 kts | 298° |
| 2026-05-06 06:05 | 37.55112 | 44.23475 | 6092 ft | 161 kts | 298° |
| 2026-05-06 06:05 | 37.55722 | 44.22073 | 6199 ft | 196 kts | 300° |
| 2026-05-06 06:05 | 37.56367 | 44.20588 | 7140 ft | 191 kts | 295° |
| 2026-05-06 06:05 | 37.57023 | 44.19042 | 7514 ft | 207 kts | 294° |
| 2026-05-06 06:06 | 37.57731 | 44.17366 | 7675 ft | 226 kts | 294° |
| 2026-05-06 06:06 | 37.58503 | 44.15534 | 7795 ft | 247 kts | 295° |
| 2026-05-06 06:06 | 37.59343 | 44.13547 | 7947 ft | 267 kts | 296° |
| 2026-05-06 06:06 | 37.60296 | 44.11454 | 8414 ft | 278 kts | 307° |
| 2026-05-06 06:07 | 37.61762 | 44.09969 | 9692 ft | 266 kts | 325° |
| 2026-05-06 06:07 | 37.63346 | 44.08729 | 10415 ft | 271 kts | 324° |
| 2026-05-06 06:07 | 37.64947 | 44.07479 | 11116 ft | 270 kts | 324° |
| 2026-05-06 06:07 | 37.66474 | 44.06153 | 11935 ft | 259 kts | 309° |
| 2026-05-06 06:08 | 37.67362 | 44.04301 | 12741 ft | 242 kts | 282° |
| 2026-05-06 06:08 | 37.67625 | 44.02241 | 13448 ft | 237 kts | 270° |
| 2026-05-06 06:08 | 37.67691 | 44.00137 | 13990 ft | 242 kts | 269° |
| 2026-05-06 06:08 | 37.67741 | 43.98013 | 14642 ft | 241 kts | 269° |
| 2026-05-06 06:09 | 37.67790 | 43.95911 | 15308 ft | 240 kts | 269° |
| 2026-05-06 06:09 | 37.67844 | 43.93728 | 15491 ft | 259 kts | 269° |
| 2026-05-06 06:09 | 37.67907 | 43.91374 | 15654 ft | 278 kts | 270° |
| 2026-05-06 06:09 | 37.67978 | 43.88854 | 15776 ft | 297 kts | 269° |
| 2026-05-06 06:10 | 37.68056 | 43.86180 | 15944 ft | 315 kts | 270° |
| 2026-05-06 06:10 | 37.68140 | 43.83327 | 16034 ft | 333 kts | 271° |
| 2026-05-06 06:10 | 37.68230 | 43.80343 | 16233 ft | 347 kts | 270° |
| 2026-05-06 06:10 | 37.68321 | 43.77263 | 16619 ft | 354 kts | 271° |
| 2026-05-06 06:11 | 37.68503 | 43.74153 | 17217 ft | 357 kts | 279° |
| 2026-05-06 06:11 | 37.69241 | 43.71148 | 17841 ft | 359 kts | 287° |
| 2026-05-06 06:11 | 37.69795 | 43.69178 | 18224 ft | 360 kts | 286° |
| 2026-05-06 06:11 | 37.70624 | 43.66180 | 18721 ft | 364 kts | 287° |
| 2026-05-06 06:12 | 37.71458 | 43.63131 | 19190 ft | 369 kts | 286° |
| 2026-05-06 06:12 | 37.72554 | 43.59075 | 20075 ft | 366 kts | 285° |
| 2026-05-06 06:12 | 37.73369 | 43.56039 | 20681 ft | 365 kts | 285° |
| 2026-05-06 06:12 | 37.73918 | 43.53986 | 21058 ft | 366 kts | 285° |
| 2026-05-06 06:13 | 37.74732 | 43.50929 | 21543 ft | 367 kts | 285° |
| 2026-05-06 06:13 | 37.75547 | 43.47866 | 22027 ft | 368 kts | 284° |
| 2026-05-06 06:13 | 37.76362 | 43.44799 | 22576 ft | 369 kts | 284° |
| 2026-05-06 06:13 | 37.77181 | 43.41715 | 23103 ft | 370 kts | 284° |
| 2026-05-06 06:14 | 37.78001 | 43.38615 | 23551 ft | 373 kts | 284° |
| 2026-05-06 06:14 | 37.78828 | 43.35491 | 23906 ft | 376 kts | 284° |
| 2026-05-06 06:14 | 37.79650 | 43.32391 | 24288 ft | 378 kts | 284° |
| 2026-05-06 06:14 | 37.80486 | 43.29233 | 24637 ft | 380 kts | 284° |
| 2026-05-06 06:15 | 37.81298 | 43.26040 | 24995 ft | 381 kts | 281° |
| 2026-05-06 06:15 | 37.81824 | 43.22750 | 25364 ft | 380 kts | 273° |
| 2026-05-06 06:15 | 37.82066 | 43.19428 | 25714 ft | 380 kts | 272° |
| 2026-05-06 06:15 | 37.82298 | 43.16084 | 26042 ft | 382 kts | 272° |
| 2026-05-06 06:16 | 37.82532 | 43.12728 | 26330 ft | 384 kts | 272° |
| 2026-05-06 06:16 | 37.82773 | 43.09352 | 26655 ft | 386 kts | 272° |
| 2026-05-06 06:16 | 37.83020 | 43.05933 | 26752 ft | 394 kts | 272° |
| 2026-05-06 06:16 | 37.83274 | 43.02466 | 27046 ft | 396 kts | 272° |
| 2026-05-06 06:17 | 37.83528 | 42.99007 | 27423 ft | 395 kts | 272° |
| 2026-05-06 06:17 | 37.83782 | 42.95540 | 27735 ft | 397 kts | 272° |
| 2026-05-06 06:17 | 37.84036 | 42.92053 | 28021 ft | 399 kts | 272° |
| 2026-05-06 06:17 | 37.84290 | 42.88555 | 28317 ft | 400 kts | 272° |
| 2026-05-06 06:18 | 37.84543 | 42.85050 | 28612 ft | 401 kts | 272° |
| 2026-05-06 06:18 | 37.84795 | 42.81541 | 29015 ft | 400 kts | 272° |
| 2026-05-06 06:18 | 37.85046 | 42.78047 | 29561 ft | 396 kts | 271° |
| 2026-05-06 06:18 | 37.85294 | 42.74601 | 30106 ft | 392 kts | 271° |
| 2026-05-06 06:19 | 37.85537 | 42.71163 | 30338 ft | 393 kts | 271° |
| 2026-05-06 06:19 | 37.85780 | 42.67703 | 30484 ft | 396 kts | 271° |
| 2026-05-06 06:19 | 37.86020 | 42.64275 | 30701 ft | 397 kts | 271° |
| 2026-05-06 06:19 | 37.86265 | 42.60754 | 30991 ft | 396 kts | 271° |
| 2026-05-06 06:20 | 37.86505 | 42.57281 | 31256 ft | 396 kts | 271° |
| 2026-05-06 06:20 | 37.86742 | 42.53852 | 31507 ft | 396 kts | 271° |
| 2026-05-06 06:20 | 37.86980 | 42.50377 | 31804 ft | 396 kts | 271° |
| 2026-05-06 06:20 | 37.87216 | 42.46916 | 32106 ft | 395 kts | 270° |
| 2026-05-06 06:21 | 37.87451 | 42.43461 | 32392 ft | 394 kts | 270° |
| 2026-05-06 06:21 | 37.87685 | 42.40002 | 32614 ft | 395 kts | 270° |
| 2026-05-06 06:21 | 37.87918 | 42.36542 | 32842 ft | 396 kts | 271° |
| 2026-05-06 06:21 | 37.88152 | 42.33046 | 32927 ft | 400 kts | 271° |
| 2026-05-06 06:22 | 37.88386 | 42.29530 | 33212 ft | 399 kts | 271° |
| 2026-05-06 06:22 | 37.88619 | 42.26040 | 33573 ft | 397 kts | 270° |
| 2026-05-06 06:22 | 37.88851 | 42.22567 | 33838 ft | 396 kts | 270° |
| 2026-05-06 06:22 | 37.89081 | 42.19086 | 33997 ft | 397 kts | 270° |
| 2026-05-06 06:23 | 37.89310 | 42.15599 | 34155 ft | 398 kts | 270° |
| 2026-05-06 06:23 | 37.89538 | 42.12104 | 34382 ft | 398 kts | 270° |
| 2026-05-06 06:23 | 37.89768 | 42.08621 | 34585 ft | 397 kts | 270° |
| 2026-05-06 06:23 | 37.89998 | 42.05140 | 34829 ft | 396 kts | 270° |
| 2026-05-06 06:24 | 37.90226 | 42.01657 | 35037 ft | 397 kts | 270° |
| 2026-05-06 06:24 | 37.90455 | 41.98170 | 35186 ft | 398 kts | 270° |
| 2026-05-06 06:24 | 37.90682 | 41.94675 | 35322 ft | 399 kts | 270° |
| 2026-05-06 06:24 | 37.90915 | 41.91168 | 35514 ft | 399 kts | 272° |
| 2026-05-06 06:25 | 37.91388 | 41.87690 | 35712 ft | 403 kts | 278° |
| 2026-05-06 06:25 | 37.92225 | 41.84333 | 35864 ft | 408 kts | 285° |
| 2026-05-06 06:25 | 37.94337 | 41.77657 | 36020 ft | 409 kts | 285° |
| 2026-05-06 06:26 | 37.95392 | 41.74301 | 36043 ft | 410 kts | 285° |
| 2026-05-06 06:26 | 37.97495 | 41.67526 | 36049 ft | 415 kts | 285° |
| 2026-05-06 06:27 | 37.99604 | 41.60679 | 36041 ft | 419 kts | 285° |
| 2026-05-06 06:27 | 38.01724 | 41.53779 | 36030 ft | 418 kts | 285° |
| 2026-05-06 06:28 | 38.03830 | 41.46987 | 36042 ft | 410 kts | 286° |
| 2026-05-06 06:28 | 38.05923 | 41.40256 | 36049 ft | 410 kts | 286° |
| 2026-05-06 06:29 | 38.08011 | 41.33515 | 36041 ft | 411 kts | 286° |
| 2026-05-06 06:29 | 38.10097 | 41.26759 | 36041 ft | 412 kts | 286° |
| 2026-05-06 06:30 | 38.12188 | 41.19974 | 36051 ft | 413 kts | 286° |
| 2026-05-06 06:30 | 38.14281 | 41.13166 | 36044 ft | 414 kts | 286° |
| 2026-05-06 06:31 | 38.16400 | 41.06356 | 36034 ft | 415 kts | 286° |
| 2026-05-06 06:31 | 38.18532 | 40.99538 | 36038 ft | 416 kts | 286° |
| 2026-05-06 06:32 | 38.20649 | 40.92734 | 36046 ft | 417 kts | 287° |
| 2026-05-06 06:32 | 38.22781 | 40.85864 | 36042 ft | 418 kts | 287° |
| 2026-05-06 06:33 | 38.24906 | 40.78970 | 36045 ft | 418 kts | 286° |
| 2026-05-06 06:33 | 38.26981 | 40.72066 | 36036 ft | 418 kts | 286° |
| 2026-05-06 06:34 | 38.29043 | 40.65154 | 36043 ft | 418 kts | 286° |
| 2026-05-06 06:34 | 38.31105 | 40.58243 | 36033 ft | 417 kts | 286° |
| 2026-05-06 06:35 | 38.33161 | 40.51346 | 36040 ft | 416 kts | 286° |
| 2026-05-06 06:35 | 38.35209 | 40.44456 | 36040 ft | 415 kts | 286° |
| 2026-05-06 06:36 | 38.37251 | 40.37570 | 36033 ft | 415 kts | 286° |
| 2026-05-06 06:36 | 38.39276 | 40.30726 | 36036 ft | 415 kts | 286° |
| 2026-05-06 06:37 | 38.41308 | 40.23840 | 36023 ft | 415 kts | 286° |
| 2026-05-06 06:37 | 38.43334 | 40.16957 | 36031 ft | 414 kts | 286° |
| 2026-05-06 06:38 | 38.45354 | 40.10078 | 36028 ft | 414 kts | 286° |
| 2026-05-06 06:38 | 38.47371 | 40.03191 | 36021 ft | 415 kts | 286° |
| 2026-05-06 06:39 | 38.49389 | 39.96280 | 36018 ft | 416 kts | 286° |
| 2026-05-06 06:39 | 38.51407 | 39.89353 | 36025 ft | 416 kts | 286° |
| 2026-05-06 06:40 | 38.53426 | 39.82404 | 36021 ft | 418 kts | 286° |
| 2026-05-06 06:40 | 38.55450 | 39.75421 | 36011 ft | 420 kts | 286° |
| 2026-05-06 06:41 | 38.57479 | 39.68403 | 36011 ft | 421 kts | 286° |
| 2026-05-06 06:41 | 38.59505 | 39.61375 | 36029 ft | 422 kts | 286° |
| 2026-05-06 06:42 | 38.61533 | 39.54326 | 36012 ft | 423 kts | 286° |
| 2026-05-06 06:42 | 38.63571 | 39.47263 | 36017 ft | 423 kts | 287° |
| 2026-05-06 06:43 | 38.65616 | 39.40262 | 36019 ft | 423 kts | 287° |
| 2026-05-06 06:43 | 38.67681 | 39.33172 | 36021 ft | 422 kts | 287° |
| 2026-05-06 06:44 | 38.69709 | 39.26178 | 36019 ft | 422 kts | 287° |
| 2026-05-06 06:44 | 38.71410 | 39.19038 | 36015 ft | 416 kts | 278° |
| 2026-05-06 06:45 | 38.72444 | 39.11748 | 36018 ft | 415 kts | 277° |
| 2026-05-06 06:45 | 38.73488 | 39.04462 | 36015 ft | 416 kts | 278° |
| 2026-05-06 06:46 | 38.74564 | 38.97195 | 36014 ft | 415 kts | 278° |
| 2026-05-06 06:46 | 38.75640 | 38.89936 | 36024 ft | 414 kts | 278° |
| 2026-05-06 06:47 | 38.76721 | 38.82739 | 36025 ft | 414 kts | 278° |
| 2026-05-06 06:47 | 38.77818 | 38.75484 | 36025 ft | 415 kts | 278° |
| 2026-05-06 06:48 | 38.78912 | 38.68203 | 36018 ft | 417 kts | 278° |
| 2026-05-06 06:48 | 38.80006 | 38.60879 | 36019 ft | 419 kts | 278° |
| 2026-05-06 06:49 | 38.81098 | 38.53526 | 36019 ft | 421 kts | 278° |
| 2026-05-06 06:49 | 38.82183 | 38.46195 | 36026 ft | 422 kts | 278° |
| 2026-05-06 06:50 | 38.83273 | 38.38780 | 36009 ft | 423 kts | 278° |
| 2026-05-06 06:50 | 38.84361 | 38.31354 | 36015 ft | 424 kts | 278° |
| 2026-05-06 06:51 | 38.85448 | 38.23918 | 36024 ft | 424 kts | 278° |
| 2026-05-06 06:51 | 38.86520 | 38.16535 | 36019 ft | 424 kts | 278° |
| 2026-05-06 06:52 | 38.87595 | 38.09099 | 36036 ft | 424 kts | 278° |
| 2026-05-06 06:52 | 38.88664 | 38.01670 | 36029 ft | 423 kts | 278° |
| 2026-05-06 06:53 | 38.89727 | 37.94246 | 36042 ft | 423 kts | 278° |
| 2026-05-06 06:53 | 38.90785 | 37.86824 | 36034 ft | 422 kts | 278° |
| 2026-05-06 06:54 | 38.91829 | 37.79463 | 36044 ft | 422 kts | 278° |
| 2026-05-06 06:54 | 38.92876 | 37.72043 | 36049 ft | 422 kts | 278° |
| 2026-05-06 06:55 | 38.93920 | 37.64610 | 36048 ft | 423 kts | 278° |
| 2026-05-06 06:55 | 38.94960 | 37.57169 | 36039 ft | 424 kts | 278° |
| 2026-05-06 06:56 | 38.95996 | 37.49725 | 36051 ft | 424 kts | 278° |
| 2026-05-06 06:56 | 38.97023 | 37.42311 | 36055 ft | 424 kts | 278° |
| 2026-05-06 06:57 | 38.98051 | 37.34846 | 36051 ft | 424 kts | 278° |
| 2026-05-06 06:57 | 38.99074 | 37.27387 | 36059 ft | 424 kts | 278° |
| 2026-05-06 06:58 | 39.00092 | 37.19923 | 36075 ft | 424 kts | 279° |
| 2026-05-06 06:58 | 39.01196 | 37.12470 | 36063 ft | 425 kts | 284° |
| 2026-05-06 06:59 | 39.02901 | 37.05192 | 36064 ft | 426 kts | 286° |
| 2026-05-06 06:59 | 39.04685 | 36.97918 | 36065 ft | 426 kts | 285° |
| 2026-05-06 07:00 | 39.06422 | 36.90691 | 36084 ft | 426 kts | 285° |
| 2026-05-06 07:00 | 39.08144 | 36.83389 | 36076 ft | 427 kts | 285° |
| 2026-05-06 07:01 | 39.09853 | 36.76070 | 36079 ft | 427 kts | 285° |
| 2026-05-06 07:01 | 39.11557 | 36.68741 | 36076 ft | 428 kts | 285° |
| 2026-05-06 07:02 | 39.13262 | 36.61390 | 36084 ft | 428 kts | 285° |
| 2026-05-06 07:02 | 39.14962 | 36.54036 | 36076 ft | 428 kts | 285° |
| 2026-05-06 07:03 | 39.16659 | 36.46674 | 36072 ft | 428 kts | 285° |
| 2026-05-06 07:03 | 39.18349 | 36.39321 | 36070 ft | 428 kts | 285° |
| 2026-05-06 07:04 | 39.20020 | 36.32023 | 36072 ft | 427 kts | 285° |
| 2026-05-06 07:04 | 39.21695 | 36.24687 | 36077 ft | 426 kts | 285° |
| 2026-05-06 07:05 | 39.23360 | 36.17365 | 36074 ft | 425 kts | 285° |
| 2026-05-06 07:05 | 39.25023 | 36.10035 | 36074 ft | 425 kts | 285° |
| 2026-05-06 07:06 | 39.26664 | 36.02776 | 36070 ft | 424 kts | 285° |
| 2026-05-06 07:06 | 39.28311 | 35.95465 | 36076 ft | 424 kts | 285° |
| 2026-05-06 07:07 | 39.29953 | 35.88159 | 36065 ft | 424 kts | 285° |
| 2026-05-06 07:07 | 39.31591 | 35.80839 | 36070 ft | 424 kts | 285° |
| 2026-05-06 07:08 | 39.33214 | 35.73568 | 36078 ft | 425 kts | 285° |
| 2026-05-06 07:08 | 39.34847 | 35.66223 | 36075 ft | 426 kts | 285° |
| 2026-05-06 07:09 | 39.36481 | 35.58853 | 36071 ft | 427 kts | 285° |
| 2026-05-06 07:09 | 39.38115 | 35.51460 | 36061 ft | 428 kts | 285° |
| 2026-05-06 07:10 | 39.39749 | 35.44038 | 36056 ft | 430 kts | 285° |
| 2026-05-06 07:10 | 39.41370 | 35.36653 | 36071 ft | 430 kts | 285° |
| 2026-05-06 07:11 | 39.42998 | 35.29209 | 36073 ft | 431 kts | 285° |
| 2026-05-06 07:11 | 39.43814 | 35.25469 | 35904 ft | 433 kts | 285° |
| 2026-05-06 07:11 | 39.44630 | 35.21723 | 35662 ft | 430 kts | 285° |
| 2026-05-06 07:11 | 39.45438 | 35.18010 | 35422 ft | 426 kts | 285° |
| 2026-05-06 07:12 | 39.46235 | 35.14337 | 35182 ft | 424 kts | 285° |
| 2026-05-06 07:12 | 39.47020 | 35.10713 | 34954 ft | 423 kts | 285° |
| 2026-05-06 07:12 | 39.47812 | 35.07053 | 34719 ft | 422 kts | 285° |
| 2026-05-06 07:12 | 39.48601 | 35.03400 | 34493 ft | 421 kts | 286° |
| 2026-05-06 07:13 | 39.49388 | 34.99750 | 34270 ft | 420 kts | 286° |
| 2026-05-06 07:13 | 39.50172 | 34.96108 | 34036 ft | 420 kts | 286° |
| 2026-05-06 07:13 | 39.50953 | 34.92473 | 33771 ft | 419 kts | 286° |
| 2026-05-06 07:13 | 39.51733 | 34.88838 | 33498 ft | 419 kts | 286° |
| 2026-05-06 07:14 | 39.52510 | 34.85209 | 33226 ft | 418 kts | 287° |
| 2026-05-06 07:14 | 39.53286 | 34.81576 | 32966 ft | 418 kts | 287° |
| 2026-05-06 07:14 | 39.54061 | 34.77946 | 32716 ft | 418 kts | 287° |
| 2026-05-06 07:14 | 39.54572 | 34.75550 | 32540 ft | 418 kts | 287° |
| 2026-05-06 07:15 | 39.55596 | 34.70742 | 32198 ft | 417 kts | 288° |
| 2026-05-06 07:15 | 39.56367 | 34.67113 | 31949 ft | 418 kts | 288° |
| 2026-05-06 07:15 | 39.56889 | 34.64653 | 31787 ft | 419 kts | 288° |
| 2026-05-06 07:15 | 39.57907 | 34.59843 | 31441 ft | 417 kts | 288° |
| 2026-05-06 07:16 | 39.58670 | 34.56226 | 30774 ft | 417 kts | 289° |
| 2026-05-06 07:16 | 39.59433 | 34.52611 | 30167 ft | 416 kts | 290° |
| 2026-05-06 07:16 | 39.59938 | 34.50216 | 29611 ft | 416 kts | 290° |
| 2026-05-06 07:16 | 39.60700 | 34.46595 | 28863 ft | 415 kts | 289° |
| 2026-05-06 07:17 | 39.61457 | 34.42993 | 28103 ft | 414 kts | 289° |
| 2026-05-06 07:17 | 39.62463 | 34.38195 | 27079 ft | 412 kts | 289° |
| 2026-05-06 07:17 | 39.63185 | 34.34746 | 26327 ft | 413 kts | 288° |
| 2026-05-06 07:17 | 39.63928 | 34.31191 | 25744 ft | 409 kts | 288° |
| 2026-05-06 07:18 | 39.64664 | 34.27652 | 25123 ft | 405 kts | 288° |
| 2026-05-06 07:18 | 39.65149 | 34.25320 | 24742 ft | 402 kts | 288° |
| 2026-05-06 07:18 | 39.65874 | 34.21835 | 24204 ft | 398 kts | 288° |
| 2026-05-06 07:18 | 39.66520 | 34.18722 | 23706 ft | 396 kts | 288° |
| 2026-05-06 07:19 | 39.67225 | 34.15322 | 23016 ft | 394 kts | 288° |
| 2026-05-06 07:19 | 39.67932 | 34.11909 | 22462 ft | 389 kts | 287° |
| 2026-05-06 07:19 | 39.68630 | 34.08526 | 21904 ft | 386 kts | 287° |
| 2026-05-06 07:19 | 39.69322 | 34.05172 | 21339 ft | 384 kts | 287° |
| 2026-05-06 07:20 | 39.70011 | 34.01829 | 20801 ft | 382 kts | 287° |
| 2026-05-06 07:20 | 39.70704 | 33.98468 | 20244 ft | 391 kts | 287° |
| 2026-05-06 07:20 | 39.71417 | 33.95004 | 19682 ft | 402 kts | 287° |
| 2026-05-06 07:20 | 39.72127 | 33.91546 | 19101 ft | 400 kts | 287° |
| 2026-05-06 07:21 | 39.72838 | 33.88068 | 18528 ft | 397 kts | 286° |
| 2026-05-06 07:21 | 39.73543 | 33.84614 | 17884 ft | 394 kts | 286° |
| 2026-05-06 07:21 | 39.74243 | 33.81179 | 17259 ft | 391 kts | 286° |
| 2026-05-06 07:21 | 39.74928 | 33.77811 | 16701 ft | 388 kts | 285° |
| 2026-05-06 07:22 | 39.75613 | 33.74437 | 16130 ft | 385 kts | 285° |
| 2026-05-06 07:22 | 39.76294 | 33.71081 | 15594 ft | 383 kts | 285° |
| 2026-05-06 07:22 | 39.76972 | 33.67739 | 15022 ft | 382 kts | 285° |
| 2026-05-06 07:22 | 39.77646 | 33.64404 | 14479 ft | 380 kts | 285° |
| 2026-05-06 07:23 | 39.78317 | 33.61087 | 13891 ft | 380 kts | 285° |
| 2026-05-06 07:23 | 39.78980 | 33.57796 | 13205 ft | 381 kts | 285° |
| 2026-05-06 07:23 | 39.79649 | 33.54476 | 12621 ft | 379 kts | 285° |
| 2026-05-06 07:23 | 39.80311 | 33.51178 | 12050 ft | 376 kts | 285° |
| 2026-05-06 07:24 | 39.80969 | 33.47899 | 11494 ft | 374 kts | 285° |
| 2026-05-06 07:24 | 39.81622 | 33.44644 | 11126 ft | 367 kts | 285° |
| 2026-05-06 07:24 | 39.82252 | 33.41492 | 10959 ft | 354 kts | 285° |
| 2026-05-06 07:24 | 39.82863 | 33.38435 | 10790 ft | 343 kts | 284° |
| 2026-05-06 07:25 | 39.83453 | 33.35475 | 10632 ft | 333 kts | 284° |
| 2026-05-06 07:25 | 39.84026 | 33.32597 | 10484 ft | 324 kts | 284° |
| 2026-05-06 07:25 | 39.84575 | 33.29836 | 10355 ft | 315 kts | 284° |
| 2026-05-06 07:25 | 39.85115 | 33.27117 | 10221 ft | 306 kts | 284° |
| 2026-05-06 07:26 | 39.85641 | 33.24469 | 10096 ft | 298 kts | 284° |
| 2026-05-06 07:26 | 39.86153 | 33.21884 | 9948 ft | 292 kts | 284° |
| 2026-05-06 07:26 | 39.86657 | 33.19338 | 9615 ft | 288 kts | 284° |
| 2026-05-06 07:26 | 39.87149 | 33.16850 | 9333 ft | 279 kts | 284° |
| 2026-05-06 07:27 | 39.87628 | 33.14420 | 9065 ft | 277 kts | 284° |
| 2026-05-06 07:27 | 39.88104 | 33.12004 | 8884 ft | 273 kts | 284° |
| 2026-05-06 07:27 | 39.88570 | 33.09641 | 8754 ft | 267 kts | 284° |
| 2026-05-06 07:27 | 39.89022 | 33.07343 | 8640 ft | 264 kts | 284° |
| 2026-05-06 07:28 | 39.89476 | 33.05035 | 8538 ft | 263 kts | 284° |
| 2026-05-06 07:28 | 39.89928 | 33.02732 | 8404 ft | 264 kts | 284° |
| 2026-05-06 07:28 | 39.91006 | 32.98150 | 7782 ft | 267 kts | 302° |
| 2026-05-06 07:29 | 39.92112 | 32.96205 | 7465 ft | 268 kts | 308° |
| 2026-05-06 07:29 | 39.93252 | 32.94261 | 7094 ft | 272 kts | 307° |
| 2026-05-06 07:29 | 39.94387 | 32.92277 | 6733 ft | 275 kts | 306° |
| 2026-05-06 07:29 | 39.95521 | 32.90271 | 6344 ft | 274 kts | 306° |
| 2026-05-06 07:30 | 39.96639 | 32.88284 | 5947 ft | 270 kts | 306° |
| 2026-05-06 07:30 | 39.97915 | 32.86544 | 5584 ft | 265 kts | 331° |
| 2026-05-06 07:30 | 39.99623 | 32.86010 | 5337 ft | 255 kts | 6° |
| 2026-05-06 07:30 | 40.01204 | 32.86855 | 5106 ft | 243 kts | 43° |
| 2026-05-06 07:31 | 40.02151 | 32.88537 | 4881 ft | 220 kts | 59° |
| 2026-05-06 07:31 | 40.03038 | 32.90035 | 4700 ft | 197 kts | 43° |
| 2026-05-06 07:31 | 40.04009 | 32.91149 | 4677 ft | 177 kts | 39° |
| 2026-05-06 07:31 | 40.04948 | 32.92112 | 4704 ft | 168 kts | 37° |
| 2026-05-06 07:32 | 40.05886 | 32.93018 | 4569 ft | 169 kts | 36° |
| 2026-05-06 07:32 | 40.06826 | 32.93918 | 4332 ft | 166 kts | 36° |
| 2026-05-06 07:32 | 40.07759 | 32.94811 | 4106 ft | 165 kts | 36° |
| 2026-05-06 07:32 | 40.08679 | 32.95692 | 3863 ft | 164 kts | 36° |
| 2026-05-06 07:33 | 40.09592 | 32.96569 | 3625 ft | 160 kts | 36° |
| 2026-05-06 07:33 | 40.10473 | 32.97411 | 3397 ft | 159 kts | 35° |
| 2026-05-06 07:33 | 40.11352 | 32.98253 | 3192 ft | 160 kts | 36° |
| 2026-05-06 07:33 | 40.12206 | 32.99095 | 3206 ft | 160 kts | 37° |
| 2026-05-06 07:34 | 40.13134 | 33.00047 | 3758 ft | 181 kts | 38° |
| 2026-05-06 07:34 | 40.14182 | 33.01116 | 4341 ft | 206 kts | 36° |
| 2026-05-06 07:34 | 40.15425 | 33.02252 | 4528 ft | 228 kts | 34° |
| 2026-05-06 07:34 | 40.16774 | 33.03480 | 4757 ft | 243 kts | 35° |
| 2026-05-06 07:35 | 40.18158 | 33.04764 | 5238 ft | 250 kts | 36° |
| 2026-05-06 07:35 | 40.19567 | 33.06090 | 5946 ft | 250 kts | 36° |
| 2026-05-06 07:35 | 40.20989 | 33.07432 | 6335 ft | 257 kts | 34° |
| 2026-05-06 07:35 | 40.22678 | 33.08366 | 6384 ft | 273 kts | 7° |
| 2026-05-06 07:36 | 40.24575 | 33.08170 | 6399 ft | 277 kts | 340° |
| 2026-05-06 07:36 | 40.26198 | 33.06876 | 6400 ft | 274 kts | 315° |
| 2026-05-06 07:36 | 40.27363 | 33.04927 | 6390 ft | 272 kts | 297° |
| 2026-05-06 07:36 | 40.27820 | 33.02555 | 6398 ft | 270 kts | 269° |
| 2026-05-06 07:37 | 40.27354 | 33.00202 | 6595 ft | 271 kts | 239° |
| 2026-05-06 07:37 | 40.26131 | 32.98354 | 6781 ft | 275 kts | 220° |
| 2026-05-06 07:37 | 40.24628 | 32.96807 | 6795 ft | 276 kts | 217° |
| 2026-05-06 07:37 | 40.23093 | 32.95308 | 6787 ft | 275 kts | 216° |
| 2026-05-06 07:38 | 40.21558 | 32.93823 | 6788 ft | 274 kts | 216° |
| 2026-05-06 07:38 | 40.20023 | 32.92342 | 6796 ft | 274 kts | 216° |
| 2026-05-06 07:38 | 40.18485 | 32.90861 | 6801 ft | 274 kts | 216° |
| 2026-05-06 07:38 | 40.16948 | 32.89379 | 6797 ft | 275 kts | 216° |
| 2026-05-06 07:39 | 40.15407 | 32.87894 | 6789 ft | 275 kts | 216° |
| 2026-05-06 07:39 | 40.13871 | 32.86416 | 6790 ft | 274 kts | 216° |
| 2026-05-06 07:39 | 40.12357 | 32.84958 | 6720 ft | 273 kts | 216° |
| 2026-05-06 07:39 | 40.10850 | 32.83506 | 6473 ft | 264 kts | 216° |
| 2026-05-06 07:40 | 40.09396 | 32.82107 | 6195 ft | 255 kts | 216° |
| 2026-05-06 07:40 | 40.07996 | 32.80759 | 5915 ft | 246 kts | 216° |
| 2026-05-06 07:40 | 40.06640 | 32.79457 | 5646 ft | 239 kts | 216° |
| 2026-05-06 07:40 | 40.05315 | 32.78188 | 5435 ft | 233 kts | 216° |
| 2026-05-06 07:41 | 40.03979 | 32.77043 | 5175 ft | 229 kts | 202° |
| 2026-05-06 07:41 | 40.02433 | 32.76806 | 4932 ft | 224 kts | 168° |
| 2026-05-06 07:41 | 40.01134 | 32.77791 | 4671 ft | 216 kts | 126° |
| 2026-05-06 07:41 | 40.00679 | 32.79552 | 4604 ft | 199 kts | 95° |
| 2026-05-06 07:42 | 40.00539 | 32.81327 | 4582 ft | 195 kts | 96° |
| 2026-05-06 07:42 | 40.00391 | 32.83056 | 4574 ft | 194 kts | 96° |
| 2026-05-06 07:42 | 40.00242 | 32.84807 | 4583 ft | 195 kts | 96° |
| 2026-05-06 07:42 | 40.00129 | 32.86569 | 4578 ft | 196 kts | 85° |
| 2026-05-06 07:43 | 40.00700 | 32.88112 | 4591 ft | 192 kts | 38° |
| 2026-05-06 07:43 | 40.01797 | 32.89094 | 4556 ft | 193 kts | 35° |
| 2026-05-06 07:43 | 40.02881 | 32.90130 | 4587 ft | 193 kts | 36° |
| 2026-05-06 07:43 | 40.03960 | 32.91171 | 4603 ft | 191 kts | 36° |
| 2026-05-06 07:44 | 40.04997 | 32.92165 | 4626 ft | 175 kts | 36° |
| 2026-05-06 07:44 | 40.05950 | 32.93078 | 4533 ft | 167 kts | 36° |
| 2026-05-06 07:44 | 40.06864 | 32.93954 | 4329 ft | 164 kts | 36° |
| 2026-05-06 07:44 | 40.07784 | 32.94836 | 4098 ft | 164 kts | 36° |
| 2026-05-06 07:45 | 40.08697 | 32.95720 | 3844 ft | 163 kts | 36° |
| 2026-05-06 07:45 | 40.09615 | 32.96583 | 3672 ft | 160 kts | 36° |
| 2026-05-06 07:45 | 40.10485 | 32.97435 | 3424 ft | 155 kts | 36° |
| 2026-05-06 07:45 | 40.11336 | 32.98241 | 3189 ft | 154 kts | 36° |
| 2026-05-06 07:46 | 40.12166 | 32.99035 | 3117 ft | 132 kts | 36° |
| 2026-05-06 07:46 | 40.12726 | 32.99577 | 3121 ft | 79 kts | 36° |
| 2026-05-06 07:46 | 40.13003 | 32.99878 | 3122 ft | 31 kts | 56° |
| 2026-05-06 07:46 | 40.13073 | 33.00055 | 3125 ft | 20 kts | 66° |
| 2026-05-06 07:47 | 40.13085 | 33.00164 | 3124 ft | 12 kts | 120° |
| 2026-05-06 07:47 | 40.13014 | 33.00159 | 3125 ft | 12 kts | 216° |
| 2026-05-06 07:47 | 40.12950 | 33.00097 | 3123 ft | 11 kts | 214° |
| 2026-05-06 07:47 | 40.12887 | 33.00040 | 3124 ft | 11 kts | 218° |
| 2026-05-06 07:48 | 40.12825 | 32.99978 | 3123 ft | 13 kts | 216° |
| 2026-05-06 07:48 | 40.12740 | 32.99896 | 3122 ft | 18 kts | 216° |
| 2026-05-06 07:48 | 40.12622 | 32.99785 | 3122 ft | 24 kts | 216° |
| 2026-05-06 07:48 | 40.12476 | 32.99646 | 3120 ft | 28 kts | 216° |
| 2026-05-06 07:49 | 40.12321 | 32.99498 | 3118 ft | 27 kts | 216° |
| 2026-05-06 07:49 | 40.12178 | 32.99359 | 3117 ft | 25 kts | 216° |
| 2026-05-06 07:49 | 40.12040 | 32.99230 | 3115 ft | 23 kts | 216° |
| 2026-05-06 07:49 | 40.11912 | 32.99106 | 3113 ft | 23 kts | 216° |
| 2026-05-06 07:50 | 40.11793 | 32.99064 | 3112 ft | 18 kts | 141° |
| 2026-05-06 07:50 | 40.11700 | 32.99129 | 3112 ft | 8 kts | 167° |
| 2026-05-06 07:50 | 40.11654 | 32.99163 | 3112 ft | 8 kts | 150° |
| 2026-05-06 07:50 | 40.11635 | 32.99178 | 3112 ft | 0 kts | 149° |